createdAt,value
2022-12-26T00:01:45.973Z,27.80
2022-12-26T00:04:51.367Z,23.30
2022-12-26T00:07:03.787Z,25.00
2022-12-26T00:09:33.452Z,21.80
2022-12-26T00:12:01.293Z,26.50
2022-12-26T00:14:29.220Z,24.00
2022-12-26T00:16:57.431Z,24.10
2022-12-26T00:19:25.644Z,22.50
2022-12-26T00:21:53.694Z,23.50
2022-12-26T00:24:21.707Z,27.30
2022-12-26T00:26:49.822Z,22.00
2022-12-26T00:29:19.126Z,22.70
2022-12-26T00:31:47.442Z,23.20
2022-12-26T00:34:15.908Z,26.60
2022-12-26T00:36:43.843Z,24.60
2022-12-26T00:39:12.074Z,22.60
2022-12-26T00:41:40.016Z,26.60
2022-12-26T00:44:07.980Z,28.40
2022-12-26T00:46:36.353Z,25.30
2022-12-26T00:49:04.838Z,22.70
2022-12-26T00:51:32.826Z,21.50
2022-12-26T00:54:00.810Z,22.30
2022-12-26T00:56:28.963Z,18.80
2022-12-26T00:58:57.343Z,18.00
2022-12-26T01:01:25.556Z,20.00
2022-12-26T01:03:53.896Z,17.50
2022-12-26T01:06:21.848Z,19.40
2022-12-26T01:08:50.341Z,17.30
2022-12-26T01:11:38.300Z,18.60
2022-12-26T01:14:12.248Z,16.30
2022-12-26T01:16:41.860Z,18.00
2022-12-26T01:19:12.178Z,20.20
2022-12-26T01:21:40.924Z,17.70
2022-12-26T01:24:09.069Z,17.00
2022-12-26T01:26:37.169Z,17.80
2022-12-26T01:29:05.250Z,16.10
2022-12-26T01:31:33.215Z,16.70
2022-12-26T01:34:01.419Z,17.10
2022-12-26T01:36:29.666Z,13.00
2022-12-26T01:38:57.564Z,15.00
2022-12-26T01:41:25.657Z,17.20
2022-12-26T01:43:55.127Z,18.80
2022-12-26T01:46:38.364Z,13.60
2022-12-26T01:49:17.327Z,16.20
2022-12-26T01:51:51.791Z,17.40
2022-12-26T01:54:39.645Z,19.10
2022-12-26T01:57:18.018Z,15.70
2022-12-26T01:59:47.391Z,14.40
2022-12-26T02:02:17.198Z,18.50
2022-12-26T02:05:08.071Z,13.00
2022-12-26T02:07:40.636Z,14.50
2022-12-26T02:10:14.874Z,17.70
2022-12-26T02:12:43.721Z,13.00
2022-12-26T02:15:15.794Z,14.30
2022-12-26T02:17:44.982Z,16.80
2022-12-26T02:20:21.073Z,14.50
2022-12-26T02:23:19.542Z,16.00
2022-12-26T02:25:56.644Z,13.10
2022-12-26T02:28:53.913Z,14.40
2022-12-26T02:31:54.250Z,16.10
2022-12-26T02:34:34.036Z,13.80
2022-12-26T02:37:23.482Z,15.80
2022-12-26T02:40:27.400Z,14.30
2022-12-26T02:43:27.746Z,17.20
2022-12-26T02:46:25.512Z,13.30
2022-12-26T02:49:28.469Z,14.40
2022-12-26T02:52:28.815Z,11.90
2022-12-26T02:55:39.123Z,13.80
2022-12-26T02:58:38.123Z,13.20
2022-12-26T03:01:32.689Z,13.10
2022-12-26T03:04:23.091Z,13.00
2022-12-26T03:07:16.651Z,14.00
2022-12-26T03:10:05.196Z,21.90
2022-12-26T03:13:06.162Z,14.30
2022-12-26T03:18:58.734Z,16.80
2022-12-26T03:21:22.766Z,12.20
2022-12-26T03:23:53.762Z,13.10
2022-12-26T03:26:41.070Z,9.60
2022-12-26T03:29:34.272Z,9.90
2022-12-26T03:32:06.205Z,10.40
2022-12-26T03:34:38.182Z,17.90
2022-12-26T03:37:24.369Z,10.00
2022-12-26T03:40:40.405Z,8.10
2022-12-26T03:43:48.521Z,16.40
2022-12-26T03:47:02.966Z,7.60
2022-12-26T03:49:55.749Z,9.80
2022-12-26T03:53:03.677Z,10.00
2022-12-26T03:56:09.541Z,8.90
2022-12-26T03:59:25.766Z,7.90
2022-12-26T04:02:15.687Z,8.20
2022-12-26T04:05:04.681Z,9.50
2022-12-26T04:07:58.483Z,11.50
2022-12-26T04:11:13.798Z,8.80
2022-12-26T04:14:32.268Z,10.80
2022-12-26T04:17:31.085Z,11.50
2022-12-26T04:20:14.402Z,11.20
2022-12-26T04:23:11.922Z,14.70
2022-12-26T04:26:11.691Z,11.80
2022-12-26T04:28:58.028Z,9.10
2022-12-26T04:31:50.545Z,8.80
2022-12-26T04:35:00.712Z,13.00
2022-12-26T04:37:49.402Z,10.30
2022-12-26T04:40:43.154Z,10.50
2022-12-26T04:43:49.903Z,10.30
2022-12-26T04:46:24.937Z,13.00
2022-12-26T04:49:13.999Z,12.70
2022-12-26T04:51:42.014Z,11.10
2022-12-26T04:54:10.354Z,12.20
2022-12-26T04:56:38.959Z,13.00
2022-12-26T04:59:07.291Z,12.10
2022-12-26T05:01:54.083Z,16.00
2022-12-26T05:04:41.087Z,14.50
2022-12-26T05:07:42.718Z,13.40
2022-12-26T05:10:21.461Z,16.30
2022-12-26T05:12:50.380Z,15.50
2022-12-26T05:15:18.731Z,14.00
2022-12-26T05:18:05.615Z,15.60
2022-12-26T05:20:52.145Z,12.50
2022-12-26T05:23:43.643Z,13.00
2022-12-26T05:26:35.923Z,18.90
2022-12-26T05:29:04.443Z,13.00
2022-12-26T05:31:36.002Z,15.10
2022-12-26T05:34:12.258Z,15.90
2022-12-26T05:36:56.731Z,15.30
2022-12-26T05:39:25.041Z,14.40
2022-12-26T05:41:53.283Z,13.20
2022-12-26T05:44:21.236Z,10.60
2022-12-26T05:46:50.084Z,14.40
2022-12-26T05:49:18.276Z,9.90
2022-12-26T05:51:46.662Z,12.00
2022-12-26T05:54:14.585Z,10.20
2022-12-26T05:56:47.555Z,10.80
2022-12-26T05:59:17.560Z,12.40
2022-12-26T06:01:45.881Z,14.90
2022-12-26T06:04:14.877Z,11.50
2022-12-26T06:06:42.855Z,10.70
2022-12-26T06:09:10.811Z,11.80
2022-12-26T06:11:43.767Z,13.40
2022-12-26T06:14:16.539Z,13.10
2022-12-26T06:16:44.908Z,10.50
2022-12-26T06:19:12.911Z,11.60
2022-12-26T06:21:41.166Z,18.70
2022-12-26T06:24:09.197Z,18.60
2022-12-26T06:26:37.901Z,18.30
2022-12-26T06:29:06.170Z,12.20
2022-12-26T06:31:34.661Z,17.60
2022-12-26T06:34:02.683Z,12.80
2022-12-26T06:36:31.029Z,13.20
2022-12-26T06:38:59.073Z,13.70
2022-12-26T06:41:27.455Z,13.30
2022-12-26T06:43:56.262Z,14.70
2022-12-26T06:46:26.418Z,12.10
2022-12-26T06:48:54.626Z,14.20
2022-12-26T06:51:25.652Z,17.00
2022-12-26T06:53:54.366Z,19.30
2022-12-26T06:56:25.375Z,21.80
2022-12-26T06:58:58.883Z,20.00
2022-12-26T07:01:28.962Z,22.00
2022-12-26T07:03:57.492Z,19.00
2022-12-26T07:06:30.737Z,15.60
2022-12-26T07:09:10.932Z,16.30
2022-12-26T07:11:41.727Z,17.10
2022-12-26T07:14:10.327Z,19.10
2022-12-26T07:16:42.137Z,15.10
2022-12-26T07:19:12.597Z,7.60
2022-12-26T07:21:41.331Z,2.40
2022-12-26T07:24:18.590Z,3.00
2022-12-26T07:26:49.103Z,6.20
2022-12-26T07:29:18.031Z,2.50
2022-12-26T07:31:45.990Z,3.60
2022-12-26T07:34:14.320Z,2.90
2022-12-26T07:36:42.823Z,3.60
2022-12-26T07:39:14.217Z,4.20
2022-12-26T07:41:57.493Z,2.00
2022-12-26T07:44:30.320Z,3.20
2022-12-26T07:46:59.686Z,2.60
2022-12-26T07:49:28.257Z,3.20
2022-12-26T07:51:57.477Z,3.90
2022-12-26T07:54:28.203Z,4.20
2022-12-26T07:57:15.129Z,3.20
2022-12-26T07:59:44.887Z,3.30
2022-12-26T08:02:14.445Z,2.10
2022-12-26T08:04:42.722Z,2.70
2022-12-26T08:07:11.381Z,4.20
2022-12-26T08:09:43.023Z,3.90
2022-12-26T08:12:11.594Z,1.50
2022-12-26T08:14:40.782Z,9.00
2022-12-26T08:17:09.373Z,3.20
2022-12-26T08:19:37.334Z,3.10
2022-12-26T08:22:05.599Z,5.00
2022-12-26T08:24:33.445Z,2.80
2022-12-26T08:27:01.453Z,3.20
2022-12-26T08:29:30.695Z,2.20
2022-12-26T08:31:58.653Z,4.50
2022-12-26T08:34:32.222Z,3.40
2022-12-26T08:37:01.227Z,2.80
2022-12-26T08:39:29.701Z,1.80
2022-12-26T08:41:57.830Z,2.50
2022-12-26T08:44:28.324Z,2.00
2022-12-26T08:46:57.461Z,3.70
2022-12-26T08:49:25.865Z,4.30
2022-12-26T08:51:54.507Z,7.20
2022-12-26T08:54:22.872Z,3.50
2022-12-26T08:56:51.119Z,4.50
2022-12-26T08:59:19.479Z,3.30
2022-12-26T09:01:47.490Z,3.30
2022-12-26T09:04:15.840Z,7.60
2022-12-26T09:06:44.861Z,1.90
2022-12-26T09:09:13.568Z,3.20
2022-12-26T09:11:42.665Z,9.40
2022-12-26T09:14:11.514Z,7.20
2022-12-26T09:16:49.155Z,2.20
2022-12-26T09:19:19.717Z,2.10
2022-12-26T09:21:49.481Z,2.10
2022-12-26T09:24:18.543Z,5.20
2022-12-26T09:26:47.416Z,3.70
2022-12-26T09:29:15.561Z,3.30
2022-12-26T09:31:43.823Z,3.90
2022-12-26T09:34:11.929Z,2.70
2022-12-26T09:36:40.025Z,3.10
2022-12-26T09:39:08.674Z,4.70
2022-12-26T09:41:54.610Z,3.60
2022-12-26T09:44:31.678Z,5.80
2022-12-26T09:47:19.437Z,4.80
2022-12-26T09:49:52.245Z,2.30
2022-12-26T09:52:48.631Z,3.00
2022-12-26T09:55:20.167Z,6.40
2022-12-26T09:57:51.583Z,6.10
2022-12-26T10:00:25.410Z,3.90
2022-12-26T10:02:57.357Z,6.70
2022-12-26T10:05:31.379Z,4.90
2022-12-26T10:08:38.754Z,4.80
2022-12-26T10:11:16.326Z,3.00
2022-12-26T10:13:52.446Z,2.50
2022-12-26T10:16:35.742Z,3.40
2022-12-26T10:19:27.329Z,4.10
2022-12-26T10:22:31.654Z,2.50
2022-12-26T10:25:02.793Z,4.00
2022-12-26T10:27:39.268Z,4.80
2022-12-26T10:30:15.019Z,6.30
2022-12-26T10:32:56.594Z,4.40
2022-12-26T10:35:36.138Z,3.00
2022-12-26T10:38:14.298Z,5.30
2022-12-26T10:40:46.909Z,6.30
2022-12-26T10:43:20.898Z,3.80
2022-12-26T10:46:24.081Z,7.60
2022-12-26T10:48:52.246Z,5.70
2022-12-26T10:51:20.635Z,3.20
2022-12-26T10:53:51.631Z,5.30
2022-12-26T10:56:21.366Z,6.40
2022-12-26T10:59:02.491Z,4.70
2022-12-26T11:01:41.353Z,3.00
2022-12-26T11:05:02.234Z,4.70
2022-12-26T11:07:13.235Z,4.40
2022-12-26T11:09:45.960Z,3.10
2022-12-26T11:12:20.898Z,6.30
2022-12-26T11:14:49.627Z,4.80
2022-12-26T11:17:28.963Z,4.50
2022-12-26T11:20:30.742Z,4.20
2022-12-26T11:23:25.652Z,4.30
2022-12-26T11:25:57.797Z,4.00
2022-12-26T11:28:35.479Z,3.90
2022-12-26T11:31:06.444Z,6.30
2022-12-26T11:33:46.355Z,3.50
2022-12-26T11:36:14.219Z,4.70
2022-12-26T11:38:47.976Z,4.90
2022-12-26T11:41:39.640Z,5.00
2022-12-26T11:44:10.500Z,4.40
2022-12-26T11:46:42.715Z,5.40
2022-12-26T11:49:31.973Z,4.60
2022-12-26T11:52:02.990Z,4.70
2022-12-26T11:54:48.445Z,7.00
2022-12-26T11:57:20.603Z,4.90
2022-12-26T11:59:51.770Z,3.30
2022-12-26T12:02:31.056Z,4.00
2022-12-26T12:05:04.879Z,7.30
2022-12-26T12:07:54.438Z,3.90
2022-12-26T12:10:31.596Z,3.70
2022-12-26T12:13:09.057Z,8.10
2022-12-26T12:16:06.635Z,6.70
2022-12-26T12:19:01.065Z,5.00
2022-12-26T12:21:40.527Z,4.90
2022-12-26T12:24:23.993Z,6.60
2022-12-26T12:27:03.222Z,5.00
2022-12-26T12:29:53.849Z,7.30
2022-12-26T12:33:06.688Z,7.90
2022-12-26T12:36:05.431Z,6.20
2022-12-26T12:38:56.746Z,4.90
2022-12-26T12:41:54.421Z,5.30
2022-12-26T12:44:37.878Z,4.70
2022-12-26T12:47:44.604Z,6.00
2022-12-26T12:50:38.090Z,5.50
2022-12-26T12:53:49.064Z,5.60
2022-12-26T12:56:44.344Z,6.10
2022-12-26T12:59:48.038Z,12.60
2022-12-26T13:02:24.011Z,5.20
2022-12-26T13:05:01.551Z,5.90
2022-12-26T13:07:45.290Z,6.70
2022-12-26T13:10:27.642Z,4.30
2022-12-26T13:12:57.250Z,6.20
2022-12-26T13:15:34.707Z,5.20
2022-12-26T13:18:10.635Z,6.10
2022-12-26T13:20:44.342Z,5.20
2022-12-26T13:23:51.162Z,8.60
2022-12-26T13:26:27.213Z,5.70
2022-12-26T13:29:15.045Z,6.10
2022-12-26T13:31:44.901Z,5.80
2022-12-26T13:34:19.364Z,4.40
2022-12-26T13:36:47.509Z,3.90
2022-12-26T13:39:27.442Z,6.40
2022-12-26T13:42:20.464Z,8.70
2022-12-26T13:44:53.516Z,6.40
2022-12-26T13:47:31.209Z,4.70
2022-12-26T13:49:59.524Z,6.70
2022-12-26T13:52:35.731Z,5.10
2022-12-26T13:55:06.808Z,10.50
2022-12-26T13:57:34.660Z,5.00
2022-12-26T14:00:09.976Z,5.60
2022-12-26T14:03:21.015Z,4.50
2022-12-26T14:06:18.263Z,5.50
2022-12-26T14:09:06.191Z,14.70
2022-12-26T14:11:46.177Z,8.50
2022-12-26T14:14:34.114Z,4.40
2022-12-26T14:17:33.528Z,8.50
2022-12-26T14:20:27.017Z,7.80
2022-12-26T14:23:04.734Z,5.60
2022-12-26T14:25:44.749Z,5.50
2022-12-26T14:28:29.292Z,5.40
2022-12-26T14:31:27.352Z,4.80
2022-12-26T14:34:10.700Z,5.30
2022-12-26T14:36:55.872Z,5.30
2022-12-26T14:39:59.305Z,5.10
2022-12-26T14:42:46.496Z,8.70
2022-12-26T14:45:29.685Z,7.10
2022-12-26T14:47:57.923Z,6.40
2022-12-26T14:50:47.021Z,4.40
2022-12-26T14:53:30.190Z,4.20
2022-12-26T14:56:33.279Z,7.80
2022-12-26T14:59:25.524Z,6.10
2022-12-26T15:02:11.048Z,4.10
2022-12-26T15:04:45.181Z,6.90
2022-12-26T15:07:30.893Z,6.40
2022-12-26T15:10:34.016Z,4.30
2022-12-26T15:13:16.620Z,6.80
2022-12-26T15:15:47.996Z,5.40
2022-12-26T15:18:51.869Z,3.90
2022-12-26T15:21:31.854Z,5.10
2022-12-26T15:24:18.696Z,5.20
2022-12-26T15:27:08.052Z,4.00
2022-12-26T15:29:57.352Z,5.40
2022-12-26T15:32:38.644Z,4.50
2022-12-26T15:35:28.249Z,5.70
2022-12-26T15:38:17.732Z,6.70
2022-12-26T15:41:01.155Z,11.90
2022-12-26T15:43:37.917Z,4.80
2022-12-26T15:46:24.776Z,5.30
2022-12-26T15:49:20.719Z,3.40
2022-12-26T15:52:25.298Z,7.80
2022-12-26T15:55:15.873Z,13.00
2022-12-26T15:57:56.406Z,4.20
2022-12-26T16:00:30.876Z,6.90
2022-12-26T16:03:21.135Z,5.20
2022-12-26T16:06:14.875Z,7.70
2022-12-26T16:09:00.771Z,5.20
2022-12-26T16:11:43.173Z,7.00
2022-12-26T16:14:29.242Z,4.60
2022-12-26T16:17:15.878Z,3.90
2022-12-26T16:19:46.856Z,4.20
2022-12-26T16:22:44.941Z,5.50
2022-12-26T16:25:20.622Z,7.80
2022-12-26T16:27:53.748Z,3.70
2022-12-26T16:30:25.527Z,4.00
2022-12-26T16:32:55.659Z,5.50
2022-12-26T16:35:34.241Z,4.20
2022-12-26T16:38:05.479Z,7.80
2022-12-26T16:40:41.969Z,8.70
2022-12-26T16:43:19.038Z,5.30
2022-12-26T16:45:50.205Z,7.40
2022-12-26T16:48:24.283Z,5.10
2022-12-26T16:50:56.186Z,7.10
2022-12-26T16:53:37.430Z,5.10
2022-12-26T16:56:23.636Z,6.90
2022-12-26T16:59:06.758Z,6.50
2022-12-26T17:01:34.944Z,4.30
2022-12-26T17:04:15.796Z,5.20
2022-12-26T17:06:51.530Z,7.20
2022-12-26T17:09:22.836Z,5.70
2022-12-26T17:11:53.539Z,7.20
2022-12-26T17:17:05.969Z,4.20
2022-12-26T17:19:36.819Z,6.20
2022-12-26T17:22:23.580Z,13.00
2022-12-26T17:24:52.589Z,14.80
2022-12-26T17:27:23.876Z,15.50
2022-12-26T17:30:19.139Z,9.50
2022-12-26T17:32:48.330Z,6.30
2022-12-26T17:35:41.437Z,5.60
2022-12-26T17:38:25.983Z,5.30
2022-12-26T17:40:57.203Z,7.30
2022-12-26T17:43:31.014Z,7.50
2022-12-26T17:46:00.102Z,4.50
2022-12-26T17:48:28.795Z,5.70
2022-12-26T17:50:59.613Z,4.30
2022-12-26T17:53:33.245Z,9.10
2022-12-26T17:56:06.350Z,4.10
2022-12-26T17:58:35.159Z,6.20
2022-12-26T18:01:03.404Z,5.20
2022-12-26T18:03:31.848Z,4.00
2022-12-26T18:05:59.991Z,5.90
2022-12-26T18:08:34.014Z,7.10
2022-12-26T18:11:05.652Z,4.10
2022-12-26T18:13:34.015Z,4.80
2022-12-26T18:16:03.536Z,4.00
2022-12-26T18:18:39.892Z,11.30
2022-12-26T18:21:11.898Z,3.80
2022-12-26T18:23:40.706Z,7.90
2022-12-26T18:26:17.993Z,5.30
2022-12-26T18:28:47.261Z,28.70
2022-12-26T18:31:16.579Z,5.40
2022-12-26T18:33:44.876Z,5.00
2022-12-26T18:36:14.928Z,5.20
2022-12-26T18:38:43.240Z,8.00
2022-12-26T18:41:16.695Z,4.60
2022-12-26T18:43:45.681Z,3.70
2022-12-26T18:46:19.841Z,4.20
2022-12-26T18:48:48.897Z,4.40
2022-12-26T18:51:17.516Z,6.90
2022-12-26T18:53:45.883Z,3.80
2022-12-26T18:56:16.724Z,6.50
2022-12-26T18:58:46.084Z,5.90
2022-12-26T19:01:16.946Z,27.20
2022-12-26T19:03:45.405Z,7.80
2022-12-26T19:06:21.406Z,4.50
2022-12-26T19:08:49.540Z,5.40
2022-12-26T19:11:17.542Z,4.40
2022-12-26T19:13:45.994Z,4.70
2022-12-26T19:16:14.805Z,4.60
2022-12-26T19:18:42.919Z,4.80
2022-12-26T19:21:15.729Z,5.30
2022-12-26T19:23:47.127Z,11.10
2022-12-26T19:26:17.878Z,3.90
2022-12-26T19:31:15.234Z,3.70
2022-12-26T19:33:43.519Z,5.50
2022-12-26T19:36:12.308Z,6.30
2022-12-26T19:38:40.625Z,6.40
2022-12-26T19:41:13.350Z,8.10
2022-12-26T19:43:42.221Z,6.70
2022-12-26T19:46:15.487Z,4.10
2022-12-26T19:48:43.932Z,4.20
2022-12-26T19:51:13.737Z,5.80
2022-12-26T19:53:42.400Z,7.70
2022-12-26T19:56:23.009Z,5.80
2022-12-26T19:58:56.352Z,4.00
2022-12-26T20:01:28.300Z,5.50
2022-12-26T20:04:02.353Z,3.60
2022-12-26T20:06:32.551Z,4.90
2022-12-26T20:09:11.464Z,4.60
2022-12-26T20:11:42.716Z,5.20
2022-12-26T20:14:17.436Z,4.30
2022-12-26T20:17:04.883Z,4.50
2022-12-26T20:19:33.648Z,4.00
2022-12-26T20:22:01.647Z,5.40
2022-12-26T20:24:30.035Z,6.40
2022-12-26T20:26:58.569Z,3.30
2022-12-26T20:29:26.926Z,4.00
2022-12-26T20:31:55.453Z,5.10
2022-12-26T20:34:23.809Z,3.40
2022-12-26T20:36:51.933Z,3.50
2022-12-26T20:39:21.171Z,5.90
2022-12-26T20:41:49.450Z,3.90
2022-12-26T20:44:18.247Z,4.50
2022-12-26T20:46:46.987Z,3.40
2022-12-26T20:49:15.245Z,7.90
2022-12-26T20:51:45.284Z,3.10
2022-12-26T20:54:15.493Z,4.80
2022-12-26T20:56:44.139Z,3.60
2022-12-26T20:59:12.376Z,5.00
2022-12-26T21:01:40.627Z,5.20
2022-12-26T21:04:20.708Z,3.90
2022-12-26T21:06:50.467Z,4.20
2022-12-26T21:09:18.981Z,5.30
2022-12-26T21:11:47.230Z,7.60
2022-12-26T21:14:17.882Z,3.80
2022-12-26T21:16:49.013Z,4.30
2022-12-26T21:19:17.906Z,5.50
2022-12-26T21:21:48.540Z,4.10
2022-12-26T21:26:48.056Z,12.90
2022-12-26T21:29:24.717Z,6.00
2022-12-26T21:31:54.210Z,7.80
2022-12-26T21:34:24.612Z,6.40
2022-12-26T21:37:11.187Z,4.90
2022-12-26T21:39:39.773Z,4.30
2022-12-26T21:42:09.300Z,5.10
2022-12-26T21:44:38.046Z,6.40
2022-12-26T21:47:08.359Z,4.10
2022-12-26T21:49:37.136Z,6.70
2022-12-26T21:52:07.352Z,5.90
2022-12-26T21:54:53.985Z,8.30
2022-12-26T21:57:22.858Z,6.50
2022-12-26T21:59:58.150Z,6.10
2022-12-26T22:02:53.405Z,5.20
2022-12-26T22:05:23.873Z,8.00
2022-12-26T22:07:57.384Z,6.30
2022-12-26T22:10:46.661Z,5.50
2022-12-26T22:13:14.935Z,9.40
2022-12-26T22:16:03.842Z,13.20
2022-12-26T22:18:37.248Z,8.00
2022-12-26T22:21:08.316Z,5.60
2022-12-26T22:23:37.792Z,7.10
2022-12-26T22:26:07.487Z,7.00
2022-12-26T22:28:35.425Z,5.30
2022-12-26T22:31:04.406Z,5.70
2022-12-26T22:33:32.916Z,5.30
2022-12-26T22:36:08.317Z,6.60
2022-12-26T22:38:37.568Z,7.20
2022-12-26T22:41:05.994Z,5.80
2022-12-26T22:43:34.110Z,5.80
2022-12-26T22:46:02.207Z,6.20
2022-12-26T22:48:30.625Z,6.00
2022-12-26T22:50:58.574Z,6.10
2022-12-26T22:53:28.868Z,7.20
2022-12-26T22:56:03.316Z,7.00
2022-12-26T22:58:32.607Z,12.50
2022-12-26T23:01:01.840Z,6.20
2022-12-26T23:03:29.977Z,6.70
2022-12-26T23:05:58.528Z,7.20
2022-12-26T23:08:27.841Z,6.40
2022-12-26T23:10:58.315Z,6.60
2022-12-26T23:13:26.898Z,8.60
2022-12-26T23:16:05.657Z,5.90
2022-12-26T23:19:00.897Z,7.50
2022-12-26T23:21:39.264Z,11.60
2022-12-26T23:24:15.489Z,8.80
2022-12-26T23:26:47.292Z,9.20
2022-12-26T23:29:36.973Z,8.90
2022-12-26T23:32:06.696Z,9.00
2022-12-26T23:34:35.615Z,8.80
2022-12-26T23:37:04.315Z,9.20
2022-12-26T23:39:32.326Z,7.40
2022-12-26T23:42:00.314Z,7.50
2022-12-26T23:44:28.954Z,9.10
2022-12-26T23:46:56.923Z,10.10
2022-12-26T23:49:24.895Z,8.00
2022-12-26T23:51:52.828Z,6.50
2022-12-26T23:54:20.863Z,11.70
2022-12-26T23:56:48.805Z,8.00
2022-12-26T23:59:18.723Z,8.60
